Time;durP1;ratioP1;P1;durP2;ratioP2;P2;SDS_P1;SDS_P2;PMS_P1;PMS_P2;Temp;Humidity;BMP_temperature;BMP_pressure;BME280_temperature;BME280_humidity;BME280_pressure;Samples;Min_cycle;Max_cycle;Signal;HPM_P1;HPM_P2
2023/05/23 00:00:46;;;;;;;38.60;13.93;;;;;;;;;;4937913;28;20092;-69
2023/05/23 00:03:14;;;;;;;34.88;11.45;;;;;;;;;;4938257;28;20248;-70
2023/05/23 00:05:40;;;;;;;39.83;11.90;;;;;;;;;;4938438;28;20050;-71
2023/05/23 00:08:05;;;;;;;35.33;11.18;;;;;;;;;;4938228;28;20041;-70
2023/05/23 00:10:30;;;;;;;39.75;10.07;;;;;;;;;;4937875;28;20104;-69
2023/05/23 00:12:58;;;;;;;37.20;9.05;;;;;;;;;;4938024;28;20096;-68
2023/05/23 00:15:26;;;;;;;37.38;9.38;;;;;;;;;;4935454;28;20892;-68
2023/05/23 00:17:51;;;;;;;37.30;8.52;;;;;;;;;;4937646;28;20453;-69
2023/05/23 00:20:17;;;;;;;34.30;9.35;;;;;;;;;;4937819;28;20443;-69
2023/05/23 00:22:42;;;;;;;30.48;9.02;;;;;;;;;;4935951;28;20058;-70
2023/05/23 00:25:08;;;;;;;38.42;9.73;;;;;;;;;;4935885;28;20027;-68
2023/05/23 00:27:36;;;;;;;37.05;9.43;;;;;;;;;;4938475;28;20077;-69
2023/05/23 00:30:02;;;;;;;35.72;9.68;;;;;;;;;;4937457;28;20522;-71
2023/05/23 00:32:27;;;;;;;34.05;10.18;;;;;;;;;;4938141;28;20042;-70
2023/05/23 00:34:53;;;;;;;27.58;9.80;;;;;;;;;;4937194;28;20030;-69
2023/05/23 00:37:19;;;;;;;35.88;9.40;;;;;;;;;;4938145;28;20435;-69
2023/05/23 00:39:44;;;;;;;41.50;9.90;;;;;;;;;;4939106;28;20083;-71
2023/05/23 00:42:12;;;;;;;31.38;9.75;;;;;;;;;;4941157;28;20095;-70
2023/05/23 00:44:37;;;;;;;31.15;10.07;;;;;;;;;;4940694;28;20038;-70
2023/05/23 00:47:02;;;;;;;35.30;9.98;;;;;;;;;;4940516;28;20129;-69
2023/05/23 00:49:28;;;;;;;34.33;8.48;;;;;;;;;;4941564;28;20135;-70
2023/05/23 00:51:53;;;;;;;33.63;8.68;;;;;;;;;;4939248;28;20064;-69
2023/05/23 00:54:27;;;;;;;33.47;8.57;;;;;;;;;;4938822;28;20084;-70
2023/05/23 00:56:53;;;;;;;31.42;8.50;;;;;;;;;;4938978;28;20035;-70
2023/05/23 00:59:20;;;;;;;28.35;8.05;;;;;;;;;;4941631;28;20022;-71
2023/05/23 01:01:46;;;;;;;30.30;8.80;;;;;;;;;;4940427;28;20464;-71
2023/05/23 01:04:12;;;;;;;33.75;8.48;;;;;;;;;;4922841;28;20023;-72
2023/05/23 01:06:37;;;;;;;33.90;8.32;;;;;;;;;;4940277;28;20403;-71
2023/05/23 01:09:03;;;;;;;28.70;8.90;;;;;;;;;;4941125;28;20058;-71
2023/05/23 01:11:39;;;;;;;29.63;8.00;;;;;;;;;;4938430;28;20426;-72
2023/05/23 01:14:11;;;;;;;27.98;8.25;;;;;;;;;;4939096;28;20455;-70
2023/05/23 01:16:36;;;;;;;;;;;;;;;;;;4938891;28;20098;-71
2023/05/23 01:19:08;;;;;;;29.55;8.00;;;;;;;;;;4940845;28;19910;-71
2023/05/23 01:21:34;;;;;;;37.85;8.25;;;;;;;;;;4938569;28;20095;-70
2023/05/23 01:24:11;;;;;;;30.67;7.93;;;;;;;;;;4941181;28;20038;-70
2023/05/23 01:26:58;;;;;;;34.25;8.30;;;;;;;;;;4939122;28;20245;-69
2023/05/23 01:29:24;;;;;;;34.00;8.65;;;;;;;;;;4940938;28;20057;-71
2023/05/23 01:31:53;;;;;;;31.30;7.75;;;;;;;;;;4938631;28;20565;-71
2023/05/23 01:34:19;;;;;;;32.10;8.10;;;;;;;;;;4941933;28;20038;-72
2023/05/23 01:36:48;;;;;;;38.15;8.85;;;;;;;;;;4944539;28;20023;-71
2023/05/23 01:39:13;;;;;;;29.88;7.88;;;;;;;;;;5042685;28;20114;-70
2023/05/23 01:41:40;;;;;;;24.55;6.95;;;;;;;;;;5042558;28;20602;-71
2023/05/23 01:44:06;;;;;;;22.52;7.30;;;;;;;;;;5041842;28;20465;-70
2023/05/23 01:46:32;;;;;;;33.38;7.38;;;;;;;;;;5042004;28;20802;-69
2023/05/23 01:48:58;;;;;;;28.63;8.48;;;;;;;;;;5041961;28;20060;-70
2023/05/23 01:51:25;;;;;;;26.48;7.55;;;;;;;;;;5041543;28;20524;-69
2023/05/23 01:53:51;;;;;;;22.55;6.63;;;;;;;;;;5042101;28;20698;-70
2023/05/23 01:56:16;;;;;;;28.10;7.22;;;;;;;;;;5042134;28;20017;-70
2023/05/23 01:58:42;;;;;;;29.40;6.95;;;;;;;;;;5040991;28;20098;-69
2023/05/23 02:01:08;;;;;;;28.60;6.95;;;;;;;;;;5040155;28;20568;-69
2023/05/23 02:03:33;;;;;;;26.50;6.50;;;;;;;;;;5038698;28;20060;-70
2023/05/23 02:05:59;;;;;;;31.25;6.53;;;;;;;;;;5042185;28;20032;-69
2023/05/23 02:08:24;;;;;;;29.05;6.75;;;;;;;;;;5040403;28;20041;-70
2023/05/23 02:10:49;;;;;;;30.27;7.22;;;;;;;;;;5073377;28;20033;-70
2023/05/23 02:13:14;;;;;;;28.77;6.78;;;;;;;;;;5040592;28;20510;-71
2023/05/23 02:15:40;;;;;;;24.40;6.50;;;;;;;;;;5041472;28;20052;-71
2023/05/23 02:18:05;;;;;;;30.75;6.57;;;;;;;;;;5039231;28;20039;-70
2023/05/23 02:20:30;;;;;;;23.55;5.28;;;;;;;;;;5040546;28;20080;-70
2023/05/23 02:22:56;;;;;;;19.50;5.50;;;;;;;;;;5022954;28;20048;-72
2023/05/23 02:25:21;;;;;;;25.25;5.53;;;;;;;;;;5040658;28;20454;-70
2023/05/23 02:27:46;;;;;;;24.90;5.72;;;;;;;;;;5041007;28;20501;-71
2023/05/23 02:30:12;;;;;;;28.02;5.82;;;;;;;;;;5037808;28;20024;-71
2023/05/23 02:32:37;;;;;;;32.30;5.88;;;;;;;;;;5040644;28;20106;-72
2023/05/23 02:35:03;;;;;;;21.25;4.88;;;;;;;;;;5038489;28;20066;-71
2023/05/23 02:37:28;;;;;;;26.02;6.07;;;;;;;;;;5008314;28;20100;-72
2023/05/23 02:39:55;;;;;;;26.50;6.03;;;;;;;;;;4939482;28;20034;-71
2023/05/23 02:42:20;;;;;;;21.13;5.05;;;;;;;;;;4936993;28;20027;-70
2023/05/23 02:44:45;;;;;;;22.23;5.20;;;;;;;;;;4939274;28;20205;-71
2023/05/23 02:47:10;;;;;;;23.85;6.10;;;;;;;;;;4937348;28;20152;-71
2023/05/23 02:49:36;;;;;;;23.75;6.20;;;;;;;;;;4940321;28;20591;-72
2023/05/23 02:52:01;;;;;;;24.08;5.78;;;;;;;;;;4937314;28;20034;-71
2023/05/23 02:54:26;;;;;;;27.70;5.70;;;;;;;;;;4938728;28;20403;-71
2023/05/23 02:56:53;;;;;;;25.15;5.50;;;;;;;;;;4936428;28;20031;-72
2023/05/23 02:59:22;;;;;;;17.85;5.32;;;;;;;;;;4939302;28;20111;-71
2023/05/23 03:01:47;;;;;;;23.27;5.97;;;;;;;;;;4938909;28;20034;-71
2023/05/23 03:04:13;;;;;;;24.15;5.70;;;;;;;;;;4938583;28;20126;-72
2023/05/23 03:06:38;;;;;;;26.88;6.28;;;;;;;;;;4936579;28;20114;-71
2023/05/23 03:09:04;;;;;;;22.02;5.82;;;;;;;;;;4936725;28;20079;-71
2023/05/23 03:11:29;;;;;;;24.33;5.55;;;;;;;;;;4939003;28;20112;-72
2023/05/23 03:13:55;;;;;;;28.70;6.10;;;;;;;;;;4938867;28;20353;-71
2023/05/23 03:16:20;;;;;;;27.88;6.55;;;;;;;;;;4936503;28;20034;-70
2023/05/23 03:18:46;;;;;;;27.65;7.25;;;;;;;;;;4937046;28;20084;-70
2023/05/23 03:21:11;;;;;;;26.90;6.15;;;;;;;;;;4937917;28;20015;-71
2023/05/23 03:23:36;;;;;;;29.85;7.70;;;;;;;;;;4936402;28;20543;-71
2023/05/23 03:26:02;;;;;;;28.98;6.93;;;;;;;;;;4938285;28;20027;-71
2023/05/23 03:28:29;;;;;;;32.70;7.95;;;;;;;;;;4938495;28;20577;-70
2023/05/23 03:30:55;;;;;;;28.73;7.85;;;;;;;;;;4936122;28;20074;-70
2023/05/23 03:33:22;;;;;;;29.27;8.32;;;;;;;;;;4938152;28;20399;-69
2023/05/23 03:35:47;;;;;;;22.88;7.80;;;;;;;;;;4938006;28;20444;-70
2023/05/23 03:38:13;;;;;;;33.10;8.35;;;;;;;;;;5000148;28;20029;-70
2023/05/23 03:40:38;;;;;;;28.60;8.02;;;;;;;;;;5038227;28;20036;-71
2023/05/23 03:43:04;;;;;;;26.85;8.32;;;;;;;;;;5039697;28;20109;-71
2023/05/23 03:45:30;;;;;;;29.27;8.68;;;;;;;;;;5037500;28;20387;-71
2023/05/23 03:47:55;;;;;;;26.17;8.25;;;;;;;;;;5036682;28;20263;-71
2023/05/23 03:50:21;;;;;;;32.88;8.27;;;;;;;;;;5039592;28;20020;-71
2023/05/23 03:52:46;;;;;;;36.38;9.90;;;;;;;;;;5038864;28;20579;-71
2023/05/23 03:55:14;;;;;;;30.13;9.38;;;;;;;;;;5037248;28;20480;-71
2023/05/23 03:57:39;;;;;;;25.98;8.63;;;;;;;;;;5038923;28;20268;-73
2023/05/23 04:00:11;;;;;;;26.65;8.40;;;;;;;;;;5039091;28;20131;-72
2023/05/23 04:02:38;;;;;;;31.73;9.35;;;;;;;;;;5036365;28;20036;-71
2023/05/23 04:05:03;;;;;;;30.02;8.80;;;;;;;;;;5036606;28;20807;-71
2023/05/23 04:07:29;;;;;;;26.73;9.65;;;;;;;;;;5038930;28;20037;-70
2023/05/23 04:09:54;;;;;;;31.00;9.45;;;;;;;;;;5035936;28;20536;-72
2023/05/23 04:12:20;;;;;;;24.55;9.38;;;;;;;;;;5036780;28;20036;-71
2023/05/23 04:14:47;;;;;;;26.80;7.97;;;;;;;;;;5038234;28;20028;-70
2023/05/23 04:17:12;;;;;;;33.55;9.18;;;;;;;;;;5036699;28;20196;-69
2023/05/23 04:19:37;;;;;;;35.00;9.32;;;;;;;;;;5037129;28;20033;-71
2023/05/23 04:22:03;;;;;;;28.63;8.45;;;;;;;;;;5037825;28;20041;-70
2023/05/23 04:24:28;;;;;;;26.20;8.05;;;;;;;;;;5036881;28;20481;-70
2023/05/23 04:26:55;;;;;;;25.20;8.00;;;;;;;;;;5038468;28;20117;-70
2023/05/23 04:29:20;;;;;;;29.50;8.70;;;;;;;;;;5036640;28;20554;-70
2023/05/23 04:31:46;;;;;;;32.85;8.57;;;;;;;;;;5038103;28;20024;-70
2023/05/23 04:34:11;;;;;;;25.23;7.55;;;;;;;;;;5036704;28;20035;-69
2023/05/23 04:36:39;;;;;;;31.20;7.88;;;;;;;;;;5069590;28;20013;-70
2023/05/23 04:39:04;;;;;;;23.52;7.68;;;;;;;;;;4940277;28;20100;-70
2023/05/23 04:41:30;;;;;;;30.13;8.60;;;;;;;;;;4936756;28;20053;-71
2023/05/23 04:43:57;;;;;;;26.15;8.02;;;;;;;;;;4936171;28;20418;-71
2023/05/23 04:46:25;;;;;;;30.70;8.30;;;;;;;;;;4936490;28;20039;-72
2023/05/23 04:48:51;;;;;;;27.05;8.43;;;;;;;;;;4918954;28;20200;-71
2023/05/23 04:51:20;;;;;;;20.15;7.03;;;;;;;;;;4937506;28;20030;-70
2023/05/23 04:53:48;;;;;;;22.02;6.97;;;;;;;;;;4937754;28;20034;-71
2023/05/23 04:56:14;;;;;;;20.00;7.78;;;;;;;;;;4937495;28;20047;-70
2023/05/23 04:58:40;;;;;;;23.00;7.60;;;;;;;;;;4936005;28;20035;-69
2023/05/23 05:01:08;;;;;;;26.70;6.40;;;;;;;;;;4937125;28;20042;-70
2023/05/23 05:03:33;;;;;;;20.98;6.18;;;;;;;;;;4937705;28;20046;-68
2023/05/23 05:06:00;;;;;;;15.48;5.68;;;;;;;;;;4937201;28;20048;-69
2023/05/23 05:08:26;;;;;;;22.50;5.57;;;;;;;;;;4935270;28;20219;-70
2023/05/23 05:10:51;;;;;;;23.05;5.68;;;;;;;;;;4935168;28;20039;-70
2023/05/23 05:13:16;;;;;;;24.00;6.40;;;;;;;;;;4937154;28;20450;-69
2023/05/23 05:15:44;;;;;;;16.30;4.88;;;;;;;;;;4936960;28;20187;-70
2023/05/23 05:18:10;;;;;;;25.20;6.15;;;;;;;;;;4937921;28;20469;-70
2023/05/23 05:20:36;;;;;;;16.90;5.55;;;;;;;;;;4937344;28;20108;-71
2023/05/23 05:23:01;;;;;;;25.13;4.88;;;;;;;;;;4937469;28;20066;-72
2023/05/23 05:25:30;;;;;;;16.58;4.32;;;;;;;;;;4934238;28;20608;-69
2023/05/23 05:27:56;;;;;;;24.88;4.43;;;;;;;;;;4938163;28;20495;-70
2023/05/23 05:30:21;;;;;;;19.63;4.63;;;;;;;;;;4940833;28;20114;-71
2023/05/23 05:32:47;;;;;;;22.65;4.43;;;;;;;;;;4941059;28;20038;-69
2023/05/23 05:35:15;;;;;;;26.98;4.60;;;;;;;;;;4938745;28;20136;-70
2023/05/23 05:37:41;;;;;;;31.30;6.32;;;;;;;;;;4978320;28;20476;-69
2023/05/23 05:40:07;;;;;;;32.95;5.50;;;;;;;;;;5039623;28;20161;-70
2023/05/23 05:42:32;;;;;;;27.88;4.80;;;;;;;;;;5039031;28;20135;-70
2023/05/23 05:44:57;;;;;;;22.65;4.50;;;;;;;;;;5041474;28;20742;-70
2023/05/23 05:47:23;;;;;;;18.48;3.30;;;;;;;;;;5040985;28;20087;-69
2023/05/23 05:49:48;;;;;;;15.43;4.32;;;;;;;;;;5023199;28;20029;-68
2023/05/23 05:52:13;;;;;;;22.02;4.25;;;;;;;;;;5040914;28;20143;-71
2023/05/23 05:54:41;;;;;;;18.92;3.88;;;;;;;;;;5021914;28;20060;-70
2023/05/23 05:57:06;;;;;;;30.35;4.85;;;;;;;;;;5039899;28;20029;-69
2023/05/23 05:59:31;;;;;;;28.75;4.40;;;;;;;;;;5038726;28;20045;-70
2023/05/23 06:01:57;;;;;;;25.48;4.20;;;;;;;;;;5039626;28;20538;-71
2023/05/23 06:04:22;;;;;;;28.92;4.82;;;;;;;;;;5038092;28;20102;-71
2023/05/23 06:06:48;;;;;;;24.80;4.20;;;;;;;;;;5073576;28;20052;-69
2023/05/23 06:09:13;;;;;;;30.02;4.50;;;;;;;;;;5038174;28;20724;-72
2023/05/23 06:11:39;;;;;;;34.17;4.20;;;;;;;;;;5039104;28;20531;-69
2023/05/23 06:14:05;;;;;;;22.85;4.82;;;;;;;;;;5038115;28;20832;-68
2023/05/23 06:16:30;;;;;;;25.13;4.05;;;;;;;;;;5038683;28;20286;-69
2023/05/23 06:18:55;;;;;;;27.58;4.60;;;;;;;;;;5040740;28;20599;-71
2023/05/23 06:21:23;;;;;;;34.78;5.35;;;;;;;;;;5041276;28;20021;-71
2023/05/23 06:23:48;;;;;;;23.73;5.25;;;;;;;;;;5038838;28;20483;-72
2023/05/23 06:26:16;;;;;;;21.40;4.50;;;;;;;;;;5041551;28;20051;-70
2023/05/23 06:28:41;;;;;;;26.25;4.53;;;;;;;;;;5040707;28;20508;-70
2023/05/23 06:31:09;;;;;;;19.55;4.30;;;;;;;;;;5040731;28;20029;-71
2023/05/23 06:33:35;;;;;;;27.65;5.05;;;;;;;;;;5072101;28;20225;-70
2023/05/23 06:36:00;;;;;;;19.83;4.15;;;;;;;;;;5040469;28;20071;-70
2023/05/23 06:38:26;;;;;;;23.23;4.82;;;;;;;;;;4965840;28;20112;-69
2023/05/23 06:40:51;;;;;;;27.27;4.68;;;;;;;;;;4936776;28;20129;-71
2023/05/23 06:43:17;;;;;;;24.52;3.50;;;;;;;;;;4938479;28;20035;-71
2023/05/23 06:45:45;;;;;;;23.55;4.25;;;;;;;;;;4938727;28;20034;-71
2023/05/23 06:48:11;;;;;;;21.60;4.88;;;;;;;;;;4938848;28;20064;-71
2023/05/23 06:50:36;;;;;;;24.65;4.63;;;;;;;;;;4937128;28;20645;-72
2023/05/23 06:53:01;;;;;;;21.17;4.68;;;;;;;;;;4938807;28;20469;-69
2023/05/23 06:55:27;;;;;;;26.27;4.35;;;;;;;;;;4936360;28;20146;-70
2023/05/23 06:57:52;;;;;;;24.85;4.20;;;;;;;;;;4938851;28;20062;-71
2023/05/23 07:00:18;;;;;;;26.10;4.25;;;;;;;;;;4921069;28;20031;-71
2023/05/23 07:02:47;;;;;;;29.23;4.32;;;;;;;;;;4936998;28;20419;-72
2023/05/23 07:05:13;;;;;;;28.70;4.53;;;;;;;;;;4938464;28;20282;-71
2023/05/23 07:07:41;;;;;;;30.70;5.05;;;;;;;;;;4936551;28;20045;-70
2023/05/23 07:10:06;;;;;;;24.30;3.75;;;;;;;;;;4942831;28;20565;-70
2023/05/23 07:12:34;;;;;;;30.70;4.82;;;;;;;;;;4939302;28;20046;-70
2023/05/23 07:14:59;;;;;;;23.95;4.60;;;;;;;;;;4938939;28;21744;-70
2023/05/23 07:17:24;;;;;;;26.38;4.90;;;;;;;;;;4936490;28;20031;-71
2023/05/23 07:19:50;;;;;;;25.40;3.97;;;;;;;;;;4920798;28;20503;-70
2023/05/23 07:22:17;;;;;;;21.75;4.38;;;;;;;;;;4920328;28;20145;-72
2023/05/23 07:24:43;;;;;;;24.73;4.43;;;;;;;;;;4939139;28;20617;-69
2023/05/23 07:27:08;;;;;;;26.20;4.93;;;;;;;;;;4938524;28;20031;-70
2023/05/23 07:29:33;;;;;;;20.40;4.15;;;;;;;;;;4936778;28;20092;-70
2023/05/23 07:31:59;;;;;;;30.15;4.57;;;;;;;;;;4936273;28;20034;-71
2023/05/23 07:34:25;;;;;;;29.40;5.28;;;;;;;;;;4939094;28;20030;-70
2023/05/23 07:36:51;;;;;;;29.90;4.68;;;;;;;;;;4941860;28;20061;-70
2023/05/23 07:39:20;;;;;;;28.10;4.75;;;;;;;;;;5037980;28;20021;-71
2023/05/23 07:41:46;;;;;;;24.15;5.00;;;;;;;;;;5036380;28;20813;-71
2023/05/23 07:44:11;;;;;;;20.33;4.43;;;;;;;;;;5036801;28;20028;-70
2023/05/23 07:46:36;;;;;;;23.27;4.68;;;;;;;;;;5036192;28;20036;-70
2023/05/23 07:49:02;;;;;;;19.23;3.67;;;;;;;;;;5036452;28;20044;-72
2023/05/23 07:51:27;;;;;;;24.48;4.40;;;;;;;;;;5036081;28;20032;-71
2023/05/23 07:53:55;;;;;;;22.33;5.07;;;;;;;;;;5036913;28;20427;-71
2023/05/23 07:56:20;;;;;;;31.73;5.10;;;;;;;;;;5036331;28;20546;-72
2023/05/23 07:58:46;;;;;;;20.98;4.45;;;;;;;;;;5038796;28;20447;-70
2023/05/23 08:01:11;;;;;;;25.92;4.57;;;;;;;;;;5037790;28;20035;-71
2023/05/23 08:03:36;;;;;;;20.40;4.63;;;;;;;;;;5036139;28;20038;-69
2023/05/23 08:06:02;;;;;;;30.25;4.63;;;;;;;;;;5039056;28;20037;-69
2023/05/23 08:08:28;;;;;;;29.08;4.43;;;;;;;;;;5036049;28;20153;-70
2023/05/23 08:10:53;;;;;;;20.92;3.97;;;;;;;;;;5038846;28;20545;-72
2023/05/23 08:13:19;;;;;;;21.20;3.72;;;;;;;;;;5038499;28;20119;-72
2023/05/23 08:15:46;;;;;;;27.17;5.05;;;;;;;;;;5036773;28;20114;-70
2023/05/23 08:18:12;;;;;;;29.08;4.85;;;;;;;;;;5037490;28;20408;-72
2023/05/23 08:20:38;;;;;;;22.45;4.15;;;;;;;;;;5038603;28;20137;-69
2023/05/23 08:23:03;;;;;;;27.58;4.90;;;;;;;;;;5038455;28;20663;-71
2023/05/23 08:25:32;;;;;;;23.90;4.18;;;;;;;;;;5039168;28;20487;-69
2023/05/23 08:27:57;;;;;;;19.67;4.55;;;;;;;;;;5038512;28;20552;-69
2023/05/23 08:30:24;;;;;;;20.88;4.30;;;;;;;;;;5038782;28;20086;-70
2023/05/23 08:32:50;;;;;;;24.05;4.10;;;;;;;;;;5037922;28;20497;-70
2023/05/23 08:35:15;;;;;;;31.25;4.45;;;;;;;;;;5036405;28;20025;-69
2023/05/23 08:37:44;;;;;;;24.40;4.82;;;;;;;;;;4996755;28;20456;-70
2023/05/23 08:40:20;;;;;;;18.10;4.22;;;;;;;;;;4936645;28;20037;-70
2023/05/23 08:42:48;;;;;;;25.40;3.92;;;;;;;;;;4937681;28;20035;-70
2023/05/23 08:45:15;;;;;;;21.38;4.18;;;;;;;;;;4937081;28;20031;-71
2023/05/23 08:47:43;;;;;;;23.20;4.28;;;;;;;;;;4937448;28;20595;-69
2023/05/23 08:50:15;;;;;;;24.00;4.68;;;;;;;;;;4937599;28;20038;-71
2023/05/23 08:52:44;;;;;;;19.55;4.40;;;;;;;;;;4937398;28;20034;-71
2023/05/23 08:55:10;;;;;;;30.15;4.50;;;;;;;;;;4934610;28;20035;-72
2023/05/23 08:57:36;;;;;;;20.45;3.75;;;;;;;;;;4937190;28;20539;-70
2023/05/23 09:00:09;;;;;;;28.42;4.65;;;;;;;;;;4919287;28;20034;-69
2023/05/23 09:02:36;;;;;;;18.50;3.78;;;;;;;;;;4940277;28;20399;-70
2023/05/23 09:05:02;;;;;;;22.05;4.45;;;;;;;;;;4937639;28;20077;-70
2023/05/23 09:07:27;;;;;;;24.20;4.20;;;;;;;;;;4940033;28;20899;-70
2023/05/23 09:09:55;;;;;;;32.00;4.60;;;;;;;;;;4938624;28;20075;-70
2023/05/23 09:12:26;;;;;;;24.17;4.57;;;;;;;;;;4940475;28;20150;-70
2023/05/23 09:14:51;;;;;;;24.80;5.03;;;;;;;;;;4940631;28;20145;-70
2023/05/23 09:17:17;;;;;;;26.17;5.03;;;;;;;;;;4941081;28;20628;-69
2023/05/23 09:19:45;;;;;;;19.85;4.25;;;;;;;;;;4940285;28;20136;-70
2023/05/23 09:22:10;;;;;;;20.42;4.38;;;;;;;;;;4939823;28;20586;-69
2023/05/23 09:24:36;;;;;;;21.05;3.30;;;;;;;;;;4940513;28;20027;-70
2023/05/23 09:27:02;;;;;;;26.05;3.72;;;;;;;;;;4939816;28;20512;-70
2023/05/23 09:29:27;;;;;;;22.05;3.90;;;;;;;;;;4939958;28;20574;-71
2023/05/23 09:31:58;;;;;;;21.25;3.58;;;;;;;;;;4938599;28;20448;-68
2023/05/23 09:34:23;;;;;;;22.75;4.20;;;;;;;;;;4937815;28;20492;-72
2023/05/23 09:36:54;;;;;;;18.95;3.72;;;;;;;;;;4946440;28;20042;-68
2023/05/23 09:39:19;;;;;;;20.17;3.75;;;;;;;;;;5042056;28;20446;-69
2023/05/23 09:41:47;;;;;;;18.50;4.07;;;;;;;;;;5040755;28;20215;-70
2023/05/23 09:44:12;;;;;;;27.83;4.60;;;;;;;;;;5042002;28;20032;-70
2023/05/23 09:46:37;;;;;;;30.60;4.38;;;;;;;;;;4961197;28;20038;-70
2023/05/23 09:49:13;;;;;;;23.23;4.50;;;;;;;;;;4922050;28;20520;-72
2023/05/23 09:51:38;;;;;;;26.48;4.63;;;;;;;;;;4918328;28;20058;-72
2023/05/23 09:54:04;;;;;;;19.08;3.80;;;;;;;;;;4926382;28;20031;-69
2023/05/23 09:56:29;;;;;;;32.92;4.50;;;;;;;;;;4937894;28;20177;-69
2023/05/23 09:58:56;;;;;;;24.48;4.28;;;;;;;;;;4940435;28;20031;-69
2023/05/23 10:01:22;;;;;;;19.10;3.80;;;;;;;;;;4940066;28;20031;-69
2023/05/23 10:03:48;;;;;;;21.10;4.22;;;;;;;;;;4953729;28;20039;-69
2023/05/23 10:06:39;;;;;;;23.77;4.65;;;;;;;;;;4940016;28;20224;-71
2023/05/23 10:09:05;;;;;;;24.35;4.35;;;;;;;;;;4937027;28;20089;-69
2023/05/23 10:11:33;;;;;;;20.67;3.50;;;;;;;;;;4939753;28;20043;-70
2023/05/23 10:14:06;;;;;;;21.88;4.03;;;;;;;;;;4937283;28;20045;-71
2023/05/23 10:16:32;;;;;;;22.52;3.90;;;;;;;;;;4937460;28;20536;-71
2023/05/23 10:18:59;;;;;;;20.98;4.00;;;;;;;;;;4937968;28;20039;-69
2023/05/23 10:21:37;;;;;;;26.63;4.55;;;;;;;;;;4939327;28;20191;-70
2023/05/23 10:24:06;;;;;;;21.15;3.67;;;;;;;;;;4939742;28;20380;-70
2023/05/23 10:26:33;;;;;;;20.52;3.67;;;;;;;;;;4936554;28;20027;-68
2023/05/23 10:28:59;;;;;;;17.75;3.88;;;;;;;;;;4968328;28;20049;-70
2023/05/23 10:31:25;;;;;;;18.90;3.78;;;;;;;;;;4937987;28;20400;-72
2023/05/23 10:34:09;;;;;;;25.13;4.43;;;;;;;;;;4940047;28;20047;-70
2023/05/23 10:36:50;;;;;;;26.42;3.95;;;;;;;;;;4940030;28;20031;-70
2023/05/23 10:39:27;;;;;;;29.83;4.50;;;;;;;;;;4934553;28;20034;-71
2023/05/23 10:41:57;;;;;;;19.38;3.35;;;;;;;;;;4919735;28;20031;-73
2023/05/23 10:44:27;;;;;;;20.60;3.80;;;;;;;;;;4920493;28;20774;-69
2023/05/23 10:46:53;;;;;;;19.38;3.95;;;;;;;;;;4920271;28;20069;-69
2023/05/23 10:49:18;;;;;;;24.65;4.57;;;;;;;;;;4918015;28;20520;-71
2023/05/23 10:51:47;;;;;;;13.65;3.30;;;;;;;;;;4917696;28;20488;-68
2023/05/23 10:54:15;;;;;;;19.95;4.07;;;;;;;;;;4918805;28;20585;-69
2023/05/23 10:56:40;;;;;;;21.52;3.50;;;;;;;;;;4920734;28;20035;-69
2023/05/23 10:59:06;;;;;;;19.67;4.10;;;;;;;;;;4920458;28;20050;-69
2023/05/23 11:01:37;;;;;;;25.58;4.47;;;;;;;;;;4919632;28;20114;-70
2023/05/23 11:04:06;;;;;;;35.13;5.00;;;;;;;;;;4919594;28;20440;-71
2023/05/23 11:06:37;;;;;;;25.30;3.97;;;;;;;;;;4919892;28;20035;-69
2023/05/23 11:09:08;;;;;;;25.83;4.40;;;;;;;;;;4949546;28;20069;-69
2023/05/23 11:11:52;;;;;;;20.17;3.20;;;;;;;;;;4933753;28;20540;-70
2023/05/23 11:14:18;;;;;;;23.88;3.75;;;;;;;;;;4949041;28;20054;-69
2023/05/23 11:16:48;;;;;;;24.42;4.18;;;;;;;;;;4917730;28;20031;-69
2023/05/23 11:19:16;;;;;;;29.45;4.35;;;;;;;;;;4919351;28;20031;-71
2023/05/23 11:21:45;;;;;;;22.10;4.00;;;;;;;;;;4918330;28;20138;-70
2023/05/23 11:24:10;;;;;;;23.38;3.92;;;;;;;;;;4918636;28;20531;-70
2023/05/23 11:26:36;;;;;;;21.90;3.72;;;;;;;;;;4920208;28;20407;-69
2023/05/23 11:29:04;;;;;;;20.65;4.38;;;;;;;;;;4918890;28;20844;-69
2023/05/23 11:31:29;;;;;;;20.05;3.63;;;;;;;;;;4920233;28;20528;-68
2023/05/23 11:33:55;;;;;;;15.60;3.67;;;;;;;;;;4918363;28;20161;-71
2023/05/23 11:36:23;;;;;;;18.77;3.78;;;;;;;;;;4949576;28;20548;-69
2023/05/23 11:38:51;;;;;;;25.73;3.53;;;;;;;;;;5023347;28;20620;-69
2023/05/23 11:41:20;;;;;;;26.30;3.95;;;;;;;;;;5039634;28;20577;-70
2023/05/23 11:43:54;;;;;;;26.58;3.90;;;;;;;;;;5038783;28;20297;-69
2023/05/23 11:46:20;;;;;;;27.15;3.90;;;;;;;;;;5039397;28;20553;-70
2023/05/23 11:48:48;;;;;;;21.05;3.58;;;;;;;;;;5036889;28;20087;-71
2023/05/23 11:51:14;;;;;;;22.48;3.95;;;;;;;;;;5039037;28;20033;-69
2023/05/23 11:53:39;;;;;;;26.25;4.00;;;;;;;;;;5039548;28;20512;-70
2023/05/23 11:56:05;;;;;;;21.48;3.53;;;;;;;;;;5037364;28;20036;-70
2023/05/23 11:58:32;;;;;;;22.75;3.15;;;;;;;;;;5039212;28;20491;-70
2023/05/23 12:00:59;;;;;;;34.97;4.60;;;;;;;;;;5039073;28;20033;-70
2023/05/23 12:03:25;;;;;;;28.35;4.20;;;;;;;;;;5039501;28;20412;-71
2023/05/23 12:05:53;;;;;;;27.90;4.28;;;;;;;;;;5039631;28;20029;-71
2023/05/23 12:08:19;;;;;;;15.82;3.40;;;;;;;;;;5038008;28;20036;-69
2023/05/23 12:10:57;;;;;;;29.38;4.68;;;;;;;;;;5036427;28;20035;-70
2023/05/23 12:13:23;;;;;;;36.75;5.43;;;;;;;;;;5039007;28;20646;-70
2023/05/23 12:15:49;;;;;;;34.05;5.50;;;;;;;;;;5038831;28;20032;-68
2023/05/23 12:18:14;;;;;;;27.63;4.60;;;;;;;;;;5037885;28;20028;-71
2023/05/23 12:20:40;;;;;;;25.20;3.70;;;;;;;;;;5038711;28;20028;-70
2023/05/23 12:23:08;;;;;;;19.75;3.35;;;;;;;;;;5038890;28;20481;-70
2023/05/23 12:25:40;;;;;;;18.55;3.53;;;;;;;;;;5038435;28;20050;-70
2023/05/23 12:28:06;;;;;;;23.58;3.95;;;;;;;;;;5029407;28;20040;-69
2023/05/23 12:30:40;;;;;;;18.77;3.22;;;;;;;;;;5039397;28;20028;-69
2023/05/23 12:33:08;;;;;;;19.52;3.55;;;;;;;;;;5038338;28;20029;-68
2023/05/23 12:35:33;;;;;;;23.27;3.88;;;;;;;;;;5048256;28;20443;-70
2023/05/23 12:37:59;;;;;;;21.17;3.70;;;;;;;;;;5010229;28;20023;-69
2023/05/23 12:40:24;;;;;;;21.98;4.05;;;;;;;;;;4963145;28;20110;-70
2023/05/23 12:42:52;;;;;;;22.50;4.15;;;;;;;;;;4962447;28;20417;-69
2023/05/23 12:45:18;;;;;;;19.85;3.45;;;;;;;;;;4962632;28;20035;-70
2023/05/23 12:47:44;;;;;;;22.60;3.47;;;;;;;;;;4962974;28;20133;-70
2023/05/23 12:50:10;;;;;;;70.15;6.47;;;;;;;;;;4961081;28;20106;-70
2023/05/23 12:52:36;;;;;;;39.58;4.13;;;;;;;;;;4963190;28;20138;-70
2023/05/23 12:55:01;;;;;;;27.35;3.75;;;;;;;;;;4963023;28;20554;-69
2023/05/23 12:57:26;;;;;;;14.48;2.88;;;;;;;;;;4961414;28;20049;-69
2023/05/23 12:59:54;;;;;;;25.20;3.25;;;;;;;;;;4960056;28;20100;-70
2023/05/23 13:02:19;;;;;;;19.92;3.13;;;;;;;;;;4963351;28;20084;-69
2023/05/23 13:04:47;;;;;;;32.08;4.05;;;;;;;;;;4961671;28;20281;-70
2023/05/23 13:07:12;;;;;;;19.15;3.03;;;;;;;;;;4962743;28;20450;-69
2023/05/23 13:09:38;;;;;;;23.90;3.50;;;;;;;;;;4961972;28;20064;-70
2023/05/23 13:12:04;;;;;;;23.63;3.90;;;;;;;;;;4962351;28;20508;-71
2023/05/23 13:14:30;;;;;;;19.83;3.60;;;;;;;;;;4962796;28;20193;-69
2023/05/23 13:16:55;;;;;;;22.90;3.42;;;;;;;;;;4963328;28;20034;-71
2023/05/23 13:19:27;;;;;;;20.38;3.08;;;;;;;;;;4944979;28;20031;-70
2023/05/23 13:21:52;;;;;;;21.67;3.85;;;;;;;;;;4962464;28;20037;-72
2023/05/23 13:24:18;;;;;;;16.73;2.83;;;;;;;;;;4962999;28;20479;-69
2023/05/23 13:26:43;;;;;;;19.63;3.03;;;;;;;;;;4962210;28;20051;-70
2023/05/23 13:29:08;;;;;;;18.13;3.28;;;;;;;;;;4962185;28;20043;-72
2023/05/23 13:31:34;;;;;;;21.40;3.70;;;;;;;;;;4946344;28;20030;-71
2023/05/23 13:34:00;;;;;;;20.45;3.30;;;;;;;;;;4960334;28;20344;-71
2023/05/23 13:36:25;;;;;;;20.63;3.15;;;;;;;;;;4959491;28;20057;-68
2023/05/23 13:38:51;;;;;;;23.20;3.58;;;;;;;;;;5045933;28;20032;-73
2023/05/23 13:41:17;;;;;;;22.58;3.25;;;;;;;;;;5064386;28;20477;-73
2023/05/23 13:43:42;;;;;;;14.43;2.88;;;;;;;;;;5064162;28;20058;-73
2023/05/23 13:46:07;;;;;;;18.50;3.00;;;;;;;;;;5061537;28;20032;-73
2023/05/23 13:48:34;;;;;;;22.95;3.85;;;;;;;;;;5084354;28;20126;-71
2023/05/23 13:50:59;;;;;;;24.05;3.58;;;;;;;;;;5060906;28;20417;-72
2023/05/23 13:53:25;;;;;;;18.48;3.50;;;;;;;;;;5063576;28;20491;-75
2023/05/23 13:55:51;;;;;;;16.48;2.67;;;;;;;;;;5061996;28;20033;-75
2023/05/23 13:58:16;;;;;;;19.45;3.33;;;;;;;;;;5061592;28;20024;-73
2023/05/23 14:00:41;;;;;;;15.32;3.15;;;;;;;;;;5063005;28;20021;-73
2023/05/23 14:03:10;;;;;;;21.95;3.55;;;;;;;;;;5062171;28;20393;-75
2023/05/23 14:05:38;;;;;;;19.23;2.75;;;;;;;;;;5060701;28;20035;-71
2023/05/23 14:08:03;;;;;;;18.73;3.95;;;;;;;;;;5061036;28;20033;-73
2023/05/23 14:10:28;;;;;;;25.60;3.70;;;;;;;;;;5060627;28;20048;-72
2023/05/23 14:12:56;;;;;;;19.25;3.53;;;;;;;;;;4978074;28;20149;-75
2023/05/23 14:15:22;;;;;;;21.52;3.42;;;;;;;;;;4959686;28;20027;-75
2023/05/23 14:17:53;;;;;;;14.77;3.25;;;;;;;;;;4942597;28;20031;-74
2023/05/23 14:20:19;;;;;;;16.77;3.10;;;;;;;;;;4943254;28;20391;-74
2023/05/23 14:22:45;;;;;;;19.63;2.50;;;;;;;;;;4953241;28;20110;-75
2023/05/23 14:25:10;;;;;;;16.63;2.65;;;;;;;;;;4941770;28;20027;-75
2023/05/23 14:27:36;;;;;;;24.30;3.78;;;;;;;;;;4941586;28;20071;-73